sensor_id;sensor_type;location;lat;lon;timestamp;temperature;humidity
74376;HTU21D;62812;55.188;61.302;2023-05-19T00:01:51;9.21;45.15
74376;HTU21D;62812;55.188;61.302;2023-05-19T00:04:19;9.17;45.34
74376;HTU21D;62812;55.188;61.302;2023-05-19T00:06:49;9.12;45.45
74376;HTU21D;62812;55.188;61.302;2023-05-19T00:09:17;9.16;44.95
74376;HTU21D;62812;55.188;61.302;2023-05-19T00:11:44;9.19;41.60
74376;HTU21D;62812;55.188;61.302;2023-05-19T00:14:11;9.21;44.77
74376;HTU21D;62812;55.188;61.302;2023-05-19T00:16:38;9.19;45.27
74376;HTU21D;62812;55.188;61.302;2023-05-19T00:19:05;9.14;45.90
74376;HTU21D;62812;55.188;61.302;2023-05-19T00:21:35;9.15;45.25
74376;HTU21D;62812;55.188;61.302;2023-05-19T00:24:07;9.12;45.89
74376;HTU21D;62812;55.188;61.302;2023-05-19T00:26:35;9.10;45.88
74376;HTU21D;62812;55.188;61.302;2023-05-19T00:29:01;9.09;45.87
74376;HTU21D;62812;55.188;61.302;2023-05-19T00:31:28;9.12;45.70
74376;HTU21D;62812;55.188;61.302;2023-05-19T00:33:55;9.14;45.59
74376;HTU21D;62812;55.188;61.302;2023-05-19T00:36:21;9.15;45.52
74376;HTU21D;62812;55.188;61.302;2023-05-19T00:38:48;9.18;45.68
74376;HTU21D;62812;55.188;61.302;2023-05-19T00:41:17;9.17;45.47
74376;HTU21D;62812;55.188;61.302;2023-05-19T00:43:44;9.17;45.60
74376;HTU21D;62812;55.188;61.302;2023-05-19T00:46:11;9.18;45.53
74376;HTU21D;62812;55.188;61.302;2023-05-19T00:48:38;9.18;45.80
74376;HTU21D;62812;55.188;61.302;2023-05-19T00:51:05;9.19;45.49
74376;HTU21D;62812;55.188;61.302;2023-05-19T00:53:33;9.21;45.54
74376;HTU21D;62812;55.188;61.302;2023-05-19T00:56:00;9.30;45.35
74376;HTU21D;62812;55.188;61.302;2023-05-19T00:58:29;9.35;45.55
74376;HTU21D;62812;55.188;61.302;2023-05-19T01:00:58;9.33;45.33
74376;HTU21D;62812;55.188;61.302;2023-05-19T01:03:29;9.36;45.55
74376;HTU21D;62812;55.188;61.302;2023-05-19T01:05:57;9.48;45.09
74376;HTU21D;62812;55.188;61.302;2023-05-19T01:08:27;9.47;44.85
74376;HTU21D;62812;55.188;61.302;2023-05-19T01:10:54;9.49;44.59
74376;HTU21D;62812;55.188;61.302;2023-05-19T01:13:21;9.49;45.02
74376;HTU21D;62812;55.188;61.302;2023-05-19T01:15:58;9.55;44.99
74376;HTU21D;62812;55.188;61.302;2023-05-19T01:18:31;9.59;44.77
74376;HTU21D;62812;55.188;61.302;2023-05-19T01:21:08;9.64;44.69
74376;HTU21D;62812;55.188;61.302;2023-05-19T01:23:47;9.69;44.22
74376;HTU21D;62812;55.188;61.302;2023-05-19T01:26:42;9.71;44.16
74376;HTU21D;62812;55.188;61.302;2023-05-19T01:32:15;9.84;43.84
74376;HTU21D;62812;55.188;61.302;2023-05-19T01:34:44;10.06;42.99
74376;HTU21D;62812;55.188;61.302;2023-05-19T01:37:12;10.10;43.68
74376;HTU21D;62812;55.188;61.302;2023-05-19T01:39:40;10.13;44.08
74376;HTU21D;62812;55.188;61.302;2023-05-19T01:42:08;10.16;43.17
74376;HTU21D;62812;55.188;61.302;2023-05-19T01:44:35;10.18;43.29
74376;HTU21D;62812;55.188;61.302;2023-05-19T01:47:04;10.26;43.13
74376;HTU21D;62812;55.188;61.302;2023-05-19T01:49:32;10.29;42.77
74376;HTU21D;62812;55.188;61.302;2023-05-19T01:51:59;10.36;42.75
74376;HTU21D;62812;55.188;61.302;2023-05-19T01:54:28;10.37;43.08
74376;HTU21D;62812;55.188;61.302;2023-05-19T01:56:59;10.43;43.39
74376;HTU21D;62812;55.188;61.302;2023-05-19T01:59:40;10.63;41.52
74376;HTU21D;62812;55.188;61.302;2023-05-19T02:02:40;10.69;42.03
74376;HTU21D;62812;55.188;61.302;2023-05-19T02:06:28;10.78;41.74
74376;HTU21D;62812;55.188;61.302;2023-05-19T02:09:02;10.77;42.48
74376;HTU21D;62812;55.188;61.302;2023-05-19T02:11:44;10.90;42.39
74376;HTU21D;62812;55.188;61.302;2023-05-19T02:14:18;10.85;41.62
74376;HTU21D;62812;55.188;61.302;2023-05-19T02:16:53;10.77;41.88
74376;HTU21D;62812;55.188;61.302;2023-05-19T02:19:58;10.87;41.77
74376;HTU21D;62812;55.188;61.302;2023-05-19T02:22:55;10.88;41.82
74376;HTU21D;62812;55.188;61.302;2023-05-19T02:25:30;10.87;41.90
74376;HTU21D;62812;55.188;61.302;2023-05-19T02:27:57;10.89;42.66
74376;HTU21D;62812;55.188;61.302;2023-05-19T02:30:24;10.83;42.52
74376;HTU21D;62812;55.188;61.302;2023-05-19T02:32:52;10.85;42.16
74376;HTU21D;62812;55.188;61.302;2023-05-19T02:35:20;10.96;41.89
74376;HTU21D;62812;55.188;61.302;2023-05-19T02:37:50;10.96;41.88
74376;HTU21D;62812;55.188;61.302;2023-05-19T02:40:19;10.97;41.71
74376;HTU21D;62812;55.188;61.302;2023-05-19T02:42:46;10.94;42.25
74376;HTU21D;62812;55.188;61.302;2023-05-19T02:45:13;10.97;42.13
74376;HTU21D;62812;55.188;61.302;2023-05-19T02:47:43;11.07;41.69
74376;HTU21D;62812;55.188;61.302;2023-05-19T02:50:12;11.14;42.29
74376;HTU21D;62812;55.188;61.302;2023-05-19T02:52:39;11.18;41.92
74376;HTU21D;62812;55.188;61.302;2023-05-19T02:55:08;11.22;42.16
74376;HTU21D;62812;55.188;61.302;2023-05-19T02:57:39;11.29;41.47
74376;HTU21D;62812;55.188;61.302;2023-05-19T03:00:09;11.31;41.74
74376;HTU21D;62812;55.188;61.302;2023-05-19T03:02:37;11.54;41.92
74376;HTU21D;62812;55.188;61.302;2023-05-19T03:05:04;11.66;41.12
74376;HTU21D;62812;55.188;61.302;2023-05-19T03:07:33;11.64;41.00
74376;HTU21D;62812;55.188;61.302;2023-05-19T03:10:00;11.63;40.82
74376;HTU21D;62812;55.188;61.302;2023-05-19T03:12:30;11.64;41.48
74376;HTU21D;62812;55.188;61.302;2023-05-19T03:14:58;11.69;41.11
74376;HTU21D;62812;55.188;61.302;2023-05-19T03:17:25;11.75;41.63
74376;HTU21D;62812;55.188;61.302;2023-05-19T03:19:53;11.87;41.93
74376;HTU21D;62812;55.188;61.302;2023-05-19T03:22:39;11.96;41.52
74376;HTU21D;62812;55.188;61.302;2023-05-19T03:25:10;12.12;41.13
74376;HTU21D;62812;55.188;61.302;2023-05-19T03:27:39;12.42;38.84
74376;HTU21D;62812;55.188;61.302;2023-05-19T03:30:07;12.58;41.01
74376;HTU21D;62812;55.188;61.302;2023-05-19T03:32:41;12.61;40.61
74376;HTU21D;62812;55.188;61.302;2023-05-19T03:35:16;12.71;40.97
74376;HTU21D;62812;55.188;61.302;2023-05-19T03:37:49;12.73;41.49
74376;HTU21D;62812;55.188;61.302;2023-05-19T03:40:16;12.79;41.40
74376;HTU21D;62812;55.188;61.302;2023-05-19T03:42:49;12.89;41.19
74376;HTU21D;62812;55.188;61.302;2023-05-19T03:45:18;12.80;41.60
74376;HTU21D;62812;55.188;61.302;2023-05-19T03:47:46;12.79;41.63
74376;HTU21D;62812;55.188;61.302;2023-05-19T03:50:13;12.76;42.55
74376;HTU21D;62812;55.188;61.302;2023-05-19T03:52:40;12.79;42.65
74376;HTU21D;62812;55.188;61.302;2023-05-19T03:55:12;12.82;43.16
74376;HTU21D;62812;55.188;61.302;2023-05-19T03:57:40;12.90;42.76
74376;HTU21D;62812;55.188;61.302;2023-05-19T04:00:09;13.00;42.88
74376;HTU21D;62812;55.188;61.302;2023-05-19T04:02:38;13.03;43.32
74376;HTU21D;62812;55.188;61.302;2023-05-19T04:05:07;13.07;43.67
74376;HTU21D;62812;55.188;61.302;2023-05-19T04:07:34;13.34;43.72
74376;HTU21D;62812;55.188;61.302;2023-05-19T04:10:03;13.38;43.93
74376;HTU21D;62812;55.188;61.302;2023-05-19T04:12:30;13.39;43.84
74376;HTU21D;62812;55.188;61.302;2023-05-19T04:15:04;13.49;43.85
74376;HTU21D;62812;55.188;61.302;2023-05-19T04:17:33;13.65;44.48
74376;HTU21D;62812;55.188;61.302;2023-05-19T04:19:59;13.89;43.91
74376;HTU21D;62812;55.188;61.302;2023-05-19T04:22:27;14.00;43.61
74376;HTU21D;62812;55.188;61.302;2023-05-19T04:24:54;14.14;43.21
74376;HTU21D;62812;55.188;61.302;2023-05-19T04:27:23;14.29;43.24
74376;HTU21D;62812;55.188;61.302;2023-05-19T04:29:53;14.39;43.35
74376;HTU21D;62812;55.188;61.302;2023-05-19T04:32:21;14.43;42.95
74376;HTU21D;62812;55.188;61.302;2023-05-19T04:34:49;14.54;44.20
74376;HTU21D;62812;55.188;61.302;2023-05-19T04:37:17;14.75;43.12
74376;HTU21D;62812;55.188;61.302;2023-05-19T04:39:57;14.66;43.47
74376;HTU21D;62812;55.188;61.302;2023-05-19T04:42:24;14.62;43.79
74376;HTU21D;62812;55.188;61.302;2023-05-19T04:44:59;14.59;44.78
74376;HTU21D;62812;55.188;61.302;2023-05-19T04:47:26;14.63;45.33
74376;HTU21D;62812;55.188;61.302;2023-05-19T04:49:56;14.54;45.28
74376;HTU21D;62812;55.188;61.302;2023-05-19T04:52:23;14.45;45.02
74376;HTU21D;62812;55.188;61.302;2023-05-19T04:54:52;14.45;45.51
74376;HTU21D;62812;55.188;61.302;2023-05-19T04:57:19;14.45;45.39
74376;HTU21D;62812;55.188;61.302;2023-05-19T04:59:47;14.48;45.30
74376;HTU21D;62812;55.188;61.302;2023-05-19T05:02:18;14.41;45.70
74376;HTU21D;62812;55.188;61.302;2023-05-19T05:04:47;14.44;45.36
74376;HTU21D;62812;55.188;61.302;2023-05-19T05:07:16;14.43;45.44
74376;HTU21D;62812;55.188;61.302;2023-05-19T05:09:43;14.39;45.67
74376;HTU21D;62812;55.188;61.302;2023-05-19T05:12:11;14.33;45.40
74376;HTU21D;62812;55.188;61.302;2023-05-19T05:14:39;14.24;45.93
74376;HTU21D;62812;55.188;61.302;2023-05-19T05:17:07;14.23;46.71
74376;HTU21D;62812;55.188;61.302;2023-05-19T05:19:35;14.26;46.09
74376;HTU21D;62812;55.188;61.302;2023-05-19T05:22:03;14.23;45.66
74376;HTU21D;62812;55.188;61.302;2023-05-19T05:24:33;14.14;45.69
74376;HTU21D;62812;55.188;61.302;2023-05-19T05:27:00;14.27;45.99
74376;HTU21D;62812;55.188;61.302;2023-05-19T05:29:27;14.58;44.32
74376;HTU21D;62812;55.188;61.302;2023-05-19T05:31:55;14.69;44.34
74376;HTU21D;62812;55.188;61.302;2023-05-19T05:34:22;14.78;43.76
74376;HTU21D;62812;55.188;61.302;2023-05-19T05:36:49;14.84;42.94
74376;HTU21D;62812;55.188;61.302;2023-05-19T05:39:16;14.96;43.03
74376;HTU21D;62812;55.188;61.302;2023-05-19T05:41:45;15.19;42.79
74376;HTU21D;62812;55.188;61.302;2023-05-19T05:44:12;15.44;42.13
74376;HTU21D;62812;55.188;61.302;2023-05-19T05:46:40;15.51;41.95
74376;HTU21D;62812;55.188;61.302;2023-05-19T05:49:08;15.62;41.33
74376;HTU21D;62812;55.188;61.302;2023-05-19T05:51:36;15.68;41.25
74376;HTU21D;62812;55.188;61.302;2023-05-19T05:54:05;15.82;41.06
74376;HTU21D;62812;55.188;61.302;2023-05-19T05:56:33;15.93;41.49
74376;HTU21D;62812;55.188;61.302;2023-05-19T05:59:03;16.07;41.34
74376;HTU21D;62812;55.188;61.302;2023-05-19T06:01:31;16.26;40.56
74376;HTU21D;62812;55.188;61.302;2023-05-19T06:04:01;16.16;40.82
74376;HTU21D;62812;55.188;61.302;2023-05-19T06:06:29;16.30;39.74
74376;HTU21D;62812;55.188;61.302;2023-05-19T06:08:57;16.21;40.48
74376;HTU21D;62812;55.188;61.302;2023-05-19T06:11:25;16.24;40.14
74376;HTU21D;62812;55.188;61.302;2023-05-19T06:13:51;16.29;40.20
74376;HTU21D;62812;55.188;61.302;2023-05-19T06:16:20;16.36;40.00
74376;HTU21D;62812;55.188;61.302;2023-05-19T06:19:11;16.46;39.52
74376;HTU21D;62812;55.188;61.302;2023-05-19T06:21:40;16.43;39.21
74376;HTU21D;62812;55.188;61.302;2023-05-19T06:24:08;16.65;37.56
74376;HTU21D;62812;55.188;61.302;2023-05-19T06:26:35;16.77;37.84
74376;HTU21D;62812;55.188;61.302;2023-05-19T06:29:04;16.74;38.49
74376;HTU21D;62812;55.188;61.302;2023-05-19T06:31:36;16.73;38.73
74376;HTU21D;62812;55.188;61.302;2023-05-19T06:34:06;16.65;38.52
74376;HTU21D;62812;55.188;61.302;2023-05-19T06:36:34;16.62;37.33
74376;HTU21D;62812;55.188;61.302;2023-05-19T06:39:01;16.55;37.56
74376;HTU21D;62812;55.188;61.302;2023-05-19T06:41:29;16.56;37.70
74376;HTU21D;62812;55.188;61.302;2023-05-19T06:43:57;16.62;37.33
74376;HTU21D;62812;55.188;61.302;2023-05-19T06:46:24;16.95;36.96
74376;HTU21D;62812;55.188;61.302;2023-05-19T06:48:55;17.02;36.65
74376;HTU21D;62812;55.188;61.302;2023-05-19T06:51:25;17.04;36.58
74376;HTU21D;62812;55.188;61.302;2023-05-19T06:53:53;16.93;36.47
74376;HTU21D;62812;55.188;61.302;2023-05-19T06:56:20;16.96;36.52
74376;HTU21D;62812;55.188;61.302;2023-05-19T06:58:48;17.11;35.63
74376;HTU21D;62812;55.188;61.302;2023-05-19T07:01:15;17.08;35.92
74376;HTU21D;62812;55.188;61.302;2023-05-19T07:03:43;17.15;36.10
74376;HTU21D;62812;55.188;61.302;2023-05-19T07:06:12;17.18;34.73
74376;HTU21D;62812;55.188;61.302;2023-05-19T07:08:39;17.35;34.15
74376;HTU21D;62812;55.188;61.302;2023-05-19T07:11:06;17.37;33.78
74376;HTU21D;62812;55.188;61.302;2023-05-19T07:13:34;17.30;33.41
74376;HTU21D;62812;55.188;61.302;2023-05-19T07:16:03;17.32;33.44
74376;HTU21D;62812;55.188;61.302;2023-05-19T07:18:30;17.40;34.18
74376;HTU21D;62812;55.188;61.302;2023-05-19T07:21:02;17.55;33.41
74376;HTU21D;62812;55.188;61.302;2023-05-19T07:23:31;17.65;33.34
74376;HTU21D;62812;55.188;61.302;2023-05-19T07:25:58;17.56;32.91
74376;HTU21D;62812;55.188;61.302;2023-05-19T07:28:32;17.64;31.25
74376;HTU21D;62812;55.188;61.302;2023-05-19T07:30:59;17.56;30.25
74376;HTU21D;62812;55.188;61.302;2023-05-19T07:33:27;17.52;30.63
74376;HTU21D;62812;55.188;61.302;2023-05-19T07:35:59;17.38;29.89
74376;HTU21D;62812;55.188;61.302;2023-05-19T07:38:32;17.47;29.75
74376;HTU21D;62812;55.188;61.302;2023-05-19T07:41:01;17.53;29.43
74376;HTU21D;62812;55.188;61.302;2023-05-19T07:43:32;17.54;29.74
74376;HTU21D;62812;55.188;61.302;2023-05-19T07:46:00;17.46;29.49
74376;HTU21D;62812;55.188;61.302;2023-05-19T07:48:29;17.41;30.06
74376;HTU21D;62812;55.188;61.302;2023-05-19T07:50:58;17.43;29.64
74376;HTU21D;62812;55.188;61.302;2023-05-19T07:53:32;17.48;30.00
74376;HTU21D;62812;55.188;61.302;2023-05-19T07:55:59;17.43;29.75
74376;HTU21D;62812;55.188;61.302;2023-05-19T07:58:28;17.45;30.27
74376;HTU21D;62812;55.188;61.302;2023-05-19T08:01:00;17.59;29.48
74376;HTU21D;62812;55.188;61.302;2023-05-19T08:03:30;17.60;28.41
74376;HTU21D;62812;55.188;61.302;2023-05-19T08:06:01;17.68;28.27
74376;HTU21D;62812;55.188;61.302;2023-05-19T08:08:28;17.62;28.15
74376;HTU21D;62812;55.188;61.302;2023-05-19T08:11:01;17.58;28.14
74376;HTU21D;62812;55.188;61.302;2023-05-19T08:13:28;17.60;27.88
74376;HTU21D;62812;55.188;61.302;2023-05-19T08:15:54;17.59;28.03
74376;HTU21D;62812;55.188;61.302;2023-05-19T08:18:26;17.79;28.60
74376;HTU21D;62812;55.188;61.302;2023-05-19T08:20:55;17.79;27.63
74376;HTU21D;62812;55.188;61.302;2023-05-19T08:23:25;17.80;26.78
74376;HTU21D;62812;55.188;61.302;2023-05-19T08:25:56;17.78;26.97
74376;HTU21D;62812;55.188;61.302;2023-05-19T08:28:25;17.73;27.16
74376;HTU21D;62812;55.188;61.302;2023-05-19T08:31:21;17.75;27.03
74376;HTU21D;62812;55.188;61.302;2023-05-19T08:33:52;17.90;27.37
74376;HTU21D;62812;55.188;61.302;2023-05-19T08:36:19;17.94;27.10
74376;HTU21D;62812;55.188;61.302;2023-05-19T08:38:47;17.93;26.70
74376;HTU21D;62812;55.188;61.302;2023-05-19T08:41:15;18.03;26.35
74376;HTU21D;62812;55.188;61.302;2023-05-19T08:43:43;18.04;25.70
74376;HTU21D;62812;55.188;61.302;2023-05-19T08:46:13;18.06;26.12
74376;HTU21D;62812;55.188;61.302;2023-05-19T08:48:44;18.32;27.24
74376;HTU21D;62812;55.188;61.302;2023-05-19T08:51:19;18.44;25.87
74376;HTU21D;62812;55.188;61.302;2023-05-19T08:53:57;18.46;25.57
74376;HTU21D;62812;55.188;61.302;2023-05-19T08:56:26;18.47;25.75
74376;HTU21D;62812;55.188;61.302;2023-05-19T08:58:55;18.47;25.36
74376;HTU21D;62812;55.188;61.302;2023-05-19T09:01:25;18.50;25.42
74376;HTU21D;62812;55.188;61.302;2023-05-19T09:03:56;18.56;25.39
74376;HTU21D;62812;55.188;61.302;2023-05-19T09:06:24;18.56;25.05
74376;HTU21D;62812;55.188;61.302;2023-05-19T09:08:52;18.76;26.75
74376;HTU21D;62812;55.188;61.302;2023-05-19T09:11:19;18.89;24.82
74376;HTU21D;62812;55.188;61.302;2023-05-19T09:13:47;18.97;24.95
74376;HTU21D;62812;55.188;61.302;2023-05-19T09:16:17;18.97;24.24
74376;HTU21D;62812;55.188;61.302;2023-05-19T09:18:53;18.95;24.30
74376;HTU21D;62812;55.188;61.302;2023-05-19T09:21:30;19.06;25.57
74376;HTU21D;62812;55.188;61.302;2023-05-19T09:23:57;19.01;25.47
74376;HTU21D;62812;55.188;61.302;2023-05-19T09:26:36;19.10;23.63
74376;HTU21D;62812;55.188;61.302;2023-05-19T09:29:10;19.32;24.80
74376;HTU21D;62812;55.188;61.302;2023-05-19T09:32:05;19.55;24.24
74376;HTU21D;62812;55.188;61.302;2023-05-19T09:34:33;19.77;25.11
74376;HTU21D;62812;55.188;61.302;2023-05-19T09:37:00;20.07;24.40
74376;HTU21D;62812;55.188;61.302;2023-05-19T09:39:28;20.15;24.07
74376;HTU21D;62812;55.188;61.302;2023-05-19T09:41:55;20.15;24.53
74376;HTU21D;62812;55.188;61.302;2023-05-19T09:44:26;20.30;24.11
74376;HTU21D;62812;55.188;61.302;2023-05-19T09:46:55;20.14;23.43
74376;HTU21D;62812;55.188;61.302;2023-05-19T09:49:25;19.81;24.19
74376;HTU21D;62812;55.188;61.302;2023-05-19T09:52:01;19.43;24.81
74376;HTU21D;62812;55.188;61.302;2023-05-19T09:54:30;19.51;25.21
74376;HTU21D;62812;55.188;61.302;2023-05-19T09:57:03;19.10;24.75
74376;HTU21D;62812;55.188;61.302;2023-05-19T09:59:32;18.82;25.11
74376;HTU21D;62812;55.188;61.302;2023-05-19T10:01:59;18.52;25.00
74376;HTU21D;62812;55.188;61.302;2023-05-19T10:04:29;18.34;25.17
74376;HTU21D;62812;55.188;61.302;2023-05-19T10:06:57;18.28;25.75
74376;HTU21D;62812;55.188;61.302;2023-05-19T10:09:38;18.20;24.78
74376;HTU21D;62812;55.188;61.302;2023-05-19T10:12:08;18.20;26.17
74376;HTU21D;62812;55.188;61.302;2023-05-19T10:14:37;18.22;25.12
74376;HTU21D;62812;55.188;61.302;2023-05-19T10:17:05;18.18;27.13
74376;HTU21D;62812;55.188;61.302;2023-05-19T10:22:45;18.25;24.80
74376;HTU21D;62812;55.188;61.302;2023-05-19T10:25:12;18.19;25.48
74376;HTU21D;62812;55.188;61.302;2023-05-19T10:27:50;18.18;24.65
74376;HTU21D;62812;55.188;61.302;2023-05-19T10:30:21;18.09;24.08
74376;HTU21D;62812;55.188;61.302;2023-05-19T10:32:49;18.05;24.40
74376;HTU21D;62812;55.188;61.302;2023-05-19T10:35:35;18.04;24.46
74376;HTU21D;62812;55.188;61.302;2023-05-19T10:38:16;18.04;24.72
74376;HTU21D;62812;55.188;61.302;2023-05-19T10:40:53;18.10;25.70
74376;HTU21D;62812;55.188;61.302;2023-05-19T10:43:32;18.24;24.05
74376;HTU21D;62812;55.188;61.302;2023-05-19T10:46:03;18.21;24.46
74376;HTU21D;62812;55.188;61.302;2023-05-19T10:48:33;18.22;24.60
74376;HTU21D;62812;55.188;61.302;2023-05-19T10:51:02;18.39;24.92
74376;HTU21D;62812;55.188;61.302;2023-05-19T10:53:32;18.40;24.10
74376;HTU21D;62812;55.188;61.302;2023-05-19T10:56:01;18.39;23.51
74376;HTU21D;62812;55.188;61.302;2023-05-19T10:58:37;18.37;24.30
74376;HTU21D;62812;55.188;61.302;2023-05-19T11:01:09;18.38;24.04
74376;HTU21D;62812;55.188;61.302;2023-05-19T11:03:45;18.40;24.06
74376;HTU21D;62812;55.188;61.302;2023-05-19T11:06:17;18.41;24.17
74376;HTU21D;62812;55.188;61.302;2023-05-19T11:08:46;18.55;26.04
74376;HTU21D;62812;55.188;61.302;2023-05-19T11:11:18;18.80;24.71
74376;HTU21D;62812;55.188;61.302;2023-05-19T11:13:46;18.84;24.59
74376;HTU21D;62812;55.188;61.302;2023-05-19T11:16:17;18.92;23.11
74376;HTU21D;62812;55.188;61.302;2023-05-19T11:18:47;18.84;22.95
74376;HTU21D;62812;55.188;61.302;2023-05-19T11:21:14;18.82;23.51
74376;HTU21D;62812;55.188;61.302;2023-05-19T11:23:43;18.82;22.85
74376;HTU21D;62812;55.188;61.302;2023-05-19T11:26:11;18.89;24.85
74376;HTU21D;62812;55.188;61.302;2023-05-19T11:28:38;18.89;23.26
74376;HTU21D;62812;55.188;61.302;2023-05-19T11:31:08;18.94;22.37
74376;HTU21D;62812;55.188;61.302;2023-05-19T11:33:37;18.96;22.14
74376;HTU21D;62812;55.188;61.302;2023-05-19T11:36:06;18.98;22.55
74376;HTU21D;62812;55.188;61.302;2023-05-19T11:38:34;18.98;21.82
74376;HTU21D;62812;55.188;61.302;2023-05-19T11:41:02;19.02;23.36
74376;HTU21D;62812;55.188;61.302;2023-05-19T11:43:31;19.17;25.11
74376;HTU21D;62812;55.188;61.302;2023-05-19T11:45:59;19.30;25.03
74376;HTU21D;62812;55.188;61.302;2023-05-19T11:48:28;19.36;23.21
74376;HTU21D;62812;55.188;61.302;2023-05-19T11:50:59;19.44;23.26
74376;HTU21D;62812;55.188;61.302;2023-05-19T11:53:27;19.38;22.99
74376;HTU21D;62812;55.188;61.302;2023-05-19T11:56:02;19.33;22.92
74376;HTU21D;62812;55.188;61.302;2023-05-19T11:58:31;19.27;23.28
74376;HTU21D;62812;55.188;61.302;2023-05-19T12:01:02;19.24;22.68
74376;HTU21D;62812;55.188;61.302;2023-05-19T12:03:29;19.22;22.76
74376;HTU21D;62812;55.188;61.302;2023-05-19T12:05:59;19.18;22.97
74376;HTU21D;62812;55.188;61.302;2023-05-19T12:08:29;19.13;22.85
74376;HTU21D;62812;55.188;61.302;2023-05-19T12:10:56;19.08;22.81
74376;HTU21D;62812;55.188;61.302;2023-05-19T12:13:26;19.05;22.64
74376;HTU21D;62812;55.188;61.302;2023-05-19T12:15:58;19.08;23.55
74376;HTU21D;62812;55.188;61.302;2023-05-19T12:18:28;19.21;22.92
74376;HTU21D;62812;55.188;61.302;2023-05-19T12:20:57;19.20;22.22
74376;HTU21D;62812;55.188;61.302;2023-05-19T12:23:24;19.16;22.78
74376;HTU21D;62812;55.188;61.302;2023-05-19T12:25:55;19.15;22.34
74376;HTU21D;62812;55.188;61.302;2023-05-19T12:28:23;19.11;22.67
74376;HTU21D;62812;55.188;61.302;2023-05-19T12:30:51;19.07;22.47
74376;HTU21D;62812;55.188;61.302;2023-05-19T12:33:20;19.03;22.38
74376;HTU21D;62812;55.188;61.302;2023-05-19T12:35:53;19.11;23.25
74376;HTU21D;62812;55.188;61.302;2023-05-19T12:38:21;19.26;22.35
74376;HTU21D;62812;55.188;61.302;2023-05-19T12:40:49;19.31;22.36
74376;HTU21D;62812;55.188;61.302;2023-05-19T12:43:21;19.22;21.62
74376;HTU21D;62812;55.188;61.302;2023-05-19T12:45:51;19.14;21.85
74376;HTU21D;62812;55.188;61.302;2023-05-19T12:48:22;19.10;21.63
74376;HTU21D;62812;55.188;61.302;2023-05-19T12:50:51;19.07;21.98
74376;HTU21D;62812;55.188;61.302;2023-05-19T12:53:21;19.17;24.03
74376;HTU21D;62812;55.188;61.302;2023-05-19T12:55:51;19.32;22.72
74376;HTU21D;62812;55.188;61.302;2023-05-19T12:58:21;19.31;24.14
74376;HTU21D;62812;55.188;61.302;2023-05-19T13:00:49;19.44;23.32
74376;HTU21D;62812;55.188;61.302;2023-05-19T13:03:19;19.59;23.13
74376;HTU21D;62812;55.188;61.302;2023-05-19T13:05:49;19.72;22.24
74376;HTU21D;62812;55.188;61.302;2023-05-19T13:08:18;19.61;21.72
74376;HTU21D;62812;55.188;61.302;2023-05-19T13:10:46;19.46;22.21
74376;HTU21D;62812;55.188;61.302;2023-05-19T13:13:16;19.46;22.63
74376;HTU21D;62812;55.188;61.302;2023-05-19T13:15:45;19.48;21.55
74376;HTU21D;62812;55.188;61.302;2023-05-19T13:18:14;19.40;21.34
74376;HTU21D;62812;55.188;61.302;2023-05-19T13:20:43;19.33;21.82
74376;HTU21D;62812;55.188;61.302;2023-05-19T13:23:13;19.48;23.61
74376;HTU21D;62812;55.188;61.302;2023-05-19T13:25:42;19.57;21.78
74376;HTU21D;62812;55.188;61.302;2023-05-19T13:28:10;19.53;21.62
74376;HTU21D;62812;55.188;61.302;2023-05-19T13:30:39;19.46;21.75
74376;HTU21D;62812;55.188;61.302;2023-05-19T13:33:06;19.40;21.60
74376;HTU21D;62812;55.188;61.302;2023-05-19T13:35:34;19.35;21.95
74376;HTU21D;62812;55.188;61.302;2023-05-19T13:38:04;19.28;22.24
74376;HTU21D;62812;55.188;61.302;2023-05-19T13:40:37;19.23;24.27
74376;HTU21D;62812;55.188;61.302;2023-05-19T13:43:04;19.25;22.05
74376;HTU21D;62812;55.188;61.302;2023-05-19T13:45:33;19.21;22.27
74376;HTU21D;62812;55.188;61.302;2023-05-19T13:48:02;19.16;22.84
74376;HTU21D;62812;55.188;61.302;2023-05-19T13:50:31;19.10;23.62
74376;HTU21D;62812;55.188;61.302;2023-05-19T13:52:59;19.17;24.85
74376;HTU21D;62812;55.188;61.302;2023-05-19T13:55:26;19.12;23.83
74376;HTU21D;62812;55.188;61.302;2023-05-19T13:57:56;19.06;22.26
74376;HTU21D;62812;55.188;61.302;2023-05-19T14:00:24;19.03;22.05
74376;HTU21D;62812;55.188;61.302;2023-05-19T14:02:53;18.98;21.97
74376;HTU21D;62812;55.188;61.302;2023-05-19T14:05:22;18.96;22.07
74376;HTU21D;62812;55.188;61.302;2023-05-19T14:07:50;18.89;22.18
74376;HTU21D;62812;55.188;61.302;2023-05-19T14:10:23;18.87;22.31
74376;HTU21D;62812;55.188;61.302;2023-05-19T14:13:20;18.85;22.82
74376;HTU21D;62812;55.188;61.302;2023-05-19T14:16:14;18.82;22.88
74376;HTU21D;62812;55.188;61.302;2023-05-19T14:18:43;18.79;23.13
74376;HTU21D;62812;55.188;61.302;2023-05-19T14:21:11;18.76;23.22
74376;HTU21D;62812;55.188;61.302;2023-05-19T14:23:42;18.71;22.44
74376;HTU21D;62812;55.188;61.302;2023-05-19T14:26:11;18.67;22.74
74376;HTU21D;62812;55.188;61.302;2023-05-19T14:28:44;18.65;22.85
74376;HTU21D;62812;55.188;61.302;2023-05-19T14:31:11;18.64;22.82
74376;HTU21D;62812;55.188;61.302;2023-05-19T14:33:39;18.64;22.43
74376;HTU21D;62812;55.188;61.302;2023-05-19T14:36:07;18.62;22.89
74376;HTU21D;62812;55.188;61.302;2023-05-19T14:42:53;18.61;22.69
74376;HTU21D;62812;55.188;61.302;2023-05-19T14:45:26;18.58;23.27
74376;HTU21D;62812;55.188;61.302;2023-05-19T14:47:58;18.58;23.56
74376;HTU21D;62812;55.188;61.302;2023-05-19T14:50:30;18.58;23.52
74376;HTU21D;62812;55.188;61.302;2023-05-19T14:52:57;18.57;23.26
74376;HTU21D;62812;55.188;61.302;2023-05-19T14:55:28;18.55;22.82
74376;HTU21D;62812;55.188;61.302;2023-05-19T14:58:04;18.56;23.26
74376;HTU21D;62812;55.188;61.302;2023-05-19T15:00:33;18.61;23.30
74376;HTU21D;62812;55.188;61.302;2023-05-19T15:03:01;18.58;22.92
74376;HTU21D;62812;55.188;61.302;2023-05-19T15:05:28;18.57;23.28
74376;HTU21D;62812;55.188;61.302;2023-05-19T15:07:55;18.63;25.61
74376;HTU21D;62812;55.188;61.302;2023-05-19T15:10:24;18.57;22.64
74376;HTU21D;62812;55.188;61.302;2023-05-19T15:12:51;18.53;23.33
74376;HTU21D;62812;55.188;61.302;2023-05-19T15:15:20;18.49;22.96
74376;HTU21D;62812;55.188;61.302;2023-05-19T15:17:51;18.44;22.95
74376;HTU21D;62812;55.188;61.302;2023-05-19T15:20:18;18.43;23.35
74376;HTU21D;62812;55.188;61.302;2023-05-19T15:22:47;18.37;23.39
74376;HTU21D;62812;55.188;61.302;2023-05-19T15:25:16;18.35;23.65
74376;HTU21D;62812;55.188;61.302;2023-05-19T15:27:43;18.39;23.27
74376;HTU21D;62812;55.188;61.302;2023-05-19T15:30:12;18.35;23.34
74376;HTU21D;62812;55.188;61.302;2023-05-19T15:32:42;18.29;23.21